Latest Weather Observations for Fitzroy Crossing

IDW60801

Issued at 11:33 am WST Thursday 1 September 2016 (issued every 30 minutes, with the page automatically refreshed every 10 minutes)

About weather observations | Map of weather stations | Latest weather observations for WA | Other Formats
Station Details ID: 003093 Name: FITZROY CROSSING AERO Lat: -18.18 Lon: 125.56 Height: 114.5 m
Data from the previous 72 hours. | See also: Recent months at Fitzroy Crossing
Date/Time
WST
Temp
°C
App
Temp
°C
Dew
Point
°C
Rel
Hum
%
Delta-T
°C
Wind Press
QNH
hPa
Press
MSL
hPa
Rain since
9am
mm
Dir  Spd
km/h
Gust
km/h
Spd
kts
Gust
kts
01/11:30am 29.0 26.7 17.5 49 7.3 SW 26 39 14 21 1013.5 1012.9 0.0
01/11:00am 28.2 25.6 16.8 50 7.1 WSW 26 41 14 22 1014.2 1013.5 0.0
01/10:30am 29.4 27.6 17.9 50 7.4 WSW 24 35 13 19 1014.6 1013.9 0.0
01/10:00am 28.2 25.9 17.7 53 6.7 WSW 26 35 14 19 1015.0 1014.3 0.0
01/09:30am 28.1 26.7 17.9 54 6.5 WSW 22 33 12 18 1015.3 1014.6 0.0
01/09:00am 27.4 26.6 18.4 58 5.8 WSW 20 32 11 17 1015.5 1014.8 0.0
01/08:30am 26.2 25.3 18.1 61 5.1 WSW 20 28 11 15 1015.6 1014.9 0.0
01/08:00am 25.1 24.9 18.5 67 4.2 SW 17 26 9 14 1015.5 1014.8 0.0
01/07:30am 24.0 24.9 19.3 75 3.0 W 13 17 7 9 1015.4 1014.9 0.0
01/07:00am 22.4 24.6 20.5 89 1.2 NW 9 13 5 7 1015.1 1014.6 0.0
01/06:30am 21.3 23.4 20.1 93 0.8 NNW 9 11 5 6 1014.7 1014.2 0.0
01/06:00am 20.4 22.0 19.2 93 0.8 NNW 9 9 5 5 1014.3 1013.8 0.0
01/05:30am 21.0 22.9 19.7 92 0.8 WNW 9 9 5 5 1013.9 1013.4 0.0
01/05:00am 21.4 23.4 19.9 91 1.0 W 9 13 5 7 1013.6 1013.2 0.0
01/04:30am 21.6 23.3 20.1 91 1.0 W 11 15 6 8 1013.3 1012.9 0.0
01/04:00am 21.7 23.3 20.0 90 1.1 WNW 11 13 6 7 1013.2 1012.8 0.0
01/03:30am 22.0 23.4 20.3 90 1.1 WNW 13 17 7 9 1013.0 1012.6 0.0
01/03:00am 21.9 23.6 20.2 90 1.1 WNW 11 15 6 8 1012.9 1012.5 0.0
01/02:30am 21.6 23.2 19.9 90 1.1 NW 11 13 6 7 1013.1 1012.7 0.0
01/02:00am 21.5 22.7 19.8 90 1.1 NW 13 13 7 7 1013.0 1012.6 0.0
01/01:30am 21.9 23.1 20.0 89 1.2 NNW 13 15 7 8 1013.2 1012.8 0.0
01/01:00am 22.5 23.8 20.2 87 1.5 NW 13 19 7 10 1013.5 1013.1 0.0
01/12:30am 22.6 24.5 20.5 88 1.4 WNW 11 11 6 6 1014.0 1013.5 0.0
01/12:00am 22.8 24.7 20.5 87 1.5 WNW 11 11 6 6 1014.2 1013.7 0.0
 
Date/Time
WST
Temp
°C
App
Temp
°C
Dew
Point
°C
Rel
Hum
%
Delta-T
°C
Wind Press
QNH
hPa
Press
MSL
hPa
Rain since
9am
mm
Dir  Spd
km/h
Gust
km/h
Spd
kts
Gust
kts
31/11:30pm 22.8 25.1 20.7 88 1.4 WNW 9 9 5 5 1014.4 1013.9 0.0
31/11:00pm 22.8 25.1 20.7 88 1.4 NW 9 11 5 6 1014.4 1013.9 0.0
31/10:30pm 22.9 25.2 20.6 87 1.5 NNW 9 11 5 6 1014.5 1014.0 0.0
31/10:00pm 23.2 25.2 20.7 86 1.6 NNW 11 11 6 6 1014.5 1014.0 0.0
31/09:30pm 23.6 26.6 20.9 85 1.8 N 6 11 3 6 1014.4 1013.9 0.0
31/09:00pm 24.2 28.3 20.7 81 2.3 CALM 0 0 0 0 1014.5 1014.0 0.0
31/08:30pm 24.5 27.6 21.0 81 2.3 NW 6 6 3 3 1014.4 1013.9 0.0
31/08:00pm 25.2 28.3 21.1 78 2.7 WNW 6 7 3 4 1014.2 1013.7 0.0
31/07:30pm 25.7 28.7 20.9 75 3.2 W 6 7 3 4 1013.9 1013.4 0.0
31/07:00pm 25.8 28.2 20.8 74 3.3 WSW 9 11 5 6 1013.4 1013.0 0.0
31/06:30pm 26.3 28.3 20.8 71 3.6 SW 11 11 6 6 1013.2 1012.8 0.0
31/06:00pm 27.3 29.5 20.4 66 4.5 SW 9 13 5 7 1012.8 1012.4 0.0
31/05:30pm 28.6 29.8 19.8 59 5.8 WSW 13 17 7 9 1012.7 1012.3 0.0
31/05:00pm 29.5 30.8 19.2 54 6.7 WSW 11 15 6 8 1012.5 1012.1 0.0
31/04:30pm 29.8 30.7 19.2 53 6.9 WSW 13 19 7 10 1012.4 1012.0 0.0
31/04:00pm 30.7 30.8 20.0 52 7.1 SW 19 24 10 13 1012.4 1012.0 0.0
31/03:30pm 30.6 31.9 19.3 51 7.4 WSW 11 17 6 9 1012.2 1011.7 0.0
31/03:00pm 31.4 32.2 19.1 48 8.1 SW 13 19 7 10 1012.3 1011.8 0.0
31/02:30pm 30.9 31.4 19.3 50 7.6 W 15 22 8 12 1012.4 1012.0 0.0
31/02:00pm 31.3 32.7 19.6 49 7.7 W 11 20 6 11 1012.8 1012.4 0.0
31/01:30pm 30.8 32.8 19.2 50 7.6 W 7 17 4 9 1013.2 1012.8 0.0
31/01:00pm 30.7 32.2 18.8 49 7.7 NNW 9 22 5 12 1013.9 1013.4 0.0
31/12:30pm 29.4 31.6 19.1 54 6.7 SW 6 15 3 8 1014.3 1013.8 0.0
31/12:00pm 30.3 32.9 19.3 51 7.2 NE 4 9 2 5 1014.9 1014.4 0.0
31/11:30am 29.5 31.8 19.8 56 6.4 NNE 7 13 4 7 1015.2 1014.7 0.0
31/11:00am 28.2 31.0 19.7 60 5.6 SSE 4 13 2 7 1015.9 1015.4 0.0
31/10:30am 27.4 30.0 20.0 64 4.9 ENE 6 11 3 6 1016.4 1015.9 0.0
31/10:00am 26.8 28.4 19.2 63 4.9 E 9 13 5 7 1016.8 1016.3 0.0
31/09:30am 26.1 28.3 19.7 68 4.2 ESE 7 13 4 7 1017.2 1016.7 0.0
31/09:00am 26.0 28.3 20.6 72 3.6 NE 9 15 5 8 1017.3 1016.8 14.4
31/08:30am 25.0 26.8 21.1 79 2.6 ENE 13 15 7 8 1017.1 1016.6 14.4
31/08:00am 23.9 25.6 20.2 80 2.4 ENE 11 15 6 8 1017.0 1016.5 14.4
31/07:30am 23.7 26.4 20.6 83 2.0 E 7 11 4 6 1016.8 1016.3 14.4
31/07:00am 21.8 24.5 20.3 91 1.0 ESE 6 9 3 5 1016.4 1015.9 14.4
31/06:30am 21.5 23.6 20.1 92 0.9 ESE 9 13 5 7 1016.1 1015.6 14.4
31/06:00am 21.3 24.3 20.1 93 0.8 SE 4 11 2 6 1015.7 1015.2 14.4
31/05:30am 21.3 23.9 20.1 93 0.8 ESE 6 9 3 5 1015.5 1015.0 14.4
31/05:00am 21.2 24.9 20.0 93 0.8 CALM 0 0 0 0 1015.2 1014.7 14.4
31/04:30am 21.3 25.1 20.1 93 0.8 CALM 0 0 0 0 1015.1 1014.6 14.4
31/04:00am 21.3 25.1 20.1 93 0.8 CALM 0 0 0 0 1015.1 1014.6 14.4
31/03:30am 21.3 25.1 20.1 93 0.8 CALM 0 0 0 0 1015.0 1014.5 14.4
31/03:00am 21.3 25.1 20.1 93 0.8 CALM 0 0 0 0 1014.8 1014.3 14.4
31/02:30am 21.3 25.1 20.1 93 0.8 CALM 0 0 0 0 1015.0 1014.5 14.4
31/02:00am 21.3 25.0 19.9 92 0.9 CALM 0 0 0 0 1015.2 1014.7 14.4
31/01:30am 21.4 25.1 20.0 92 0.9 CALM 0 0 0 0 1015.6 1015.1 14.4
31/01:00am 21.4 24.7 20.0 92 0.9 E 2 7 1 4 1015.6 1015.1 14.4
31/12:30am 21.4 25.1 20.0 92 0.9 CALM 0 0 0 0 1015.8 1015.3 14.4
31/12:00am 21.5 25.2 20.0 91 1.0 CALM 0 0 0 0 1015.9 1015.4 14.4
 
Date/Time
WST
Temp
°C
App
Temp
°C
Dew
Point
°C
Rel
Hum
%
Delta-T
°C
Wind Press
QNH
hPa
Press
MSL
hPa
Rain since
9am
mm
Dir  Spd
km/h
Gust
km/h
Spd
kts
Gust
kts
30/11:30pm 21.5 25.3 20.1 92 0.9 CALM 0 0 0 0 1016.0 1015.5 14.4
30/11:00pm 21.5 25.3 20.1 92 0.9 CALM 0 0 0 0 1016.2 1015.7 14.4
30/10:30pm 21.5 24.9 20.1 92 0.9 ENE 2 7 1 4 1016.5 1016.0 14.4
30/10:00pm 21.5 24.9 20.1 92 0.9 E 2 7 1 4 1016.5 1016.0 14.4
30/09:30pm 21.4 23.9 20.2 93 0.8 NE 7 9 4 5 1016.4 1015.9 14.4
30/09:00pm 21.5 23.9 20.1 92 0.9 E 7 11 4 6 1016.5 1016.0 14.4
30/08:30pm 21.4 23.8 20.0 92 0.9 E 7 11 4 6 1016.4 1015.9 14.4
30/08:00pm 21.4 23.4 20.0 92 0.9 E 9 11 5 6 1016.4 1015.9 14.4
30/07:30pm 21.5 23.6 20.1 92 0.9 ESE 9 11 5 6 1016.1 1015.6 14.4
30/07:00pm 21.6 24.0 20.1 91 1.0 SE 7 11 4 6 1015.9 1015.4 14.4
30/06:30pm 21.8 24.3 20.3 91 1.0 ESE 7 9 4 5 1015.6 1015.1 14.4
30/06:00pm 21.9 23.9 20.0 89 1.2 ESE 9 13 5 7 1015.3 1014.8 14.4
30/05:30pm 22.1 24.5 20.0 88 1.4 E 7 9 4 5 1015.1 1014.6 14.4
30/05:00pm 22.2 24.4 20.3 89 1.2 ENE 9 11 5 6 1014.8 1014.3 14.4
30/04:30pm 22.4 24.6 20.3 88 1.4 E 9 11 5 6 1014.8 1014.3 14.4
30/04:00pm 22.5 25.2 20.6 89 1.2 E 7 9 4 5 1014.7 1014.2 14.4
30/03:30pm 22.4 24.8 20.1 87 1.5 E 7 9 4 5 1014.7 1014.2 14.4
30/03:00pm 22.3 24.5 20.4 89 1.2 E 9 11 5 6 1014.6 1014.1 14.4
30/02:30pm 22.5 25.2 20.6 89 1.2 E 7 11 4 6 1014.6 1014.1 14.4
30/02:00pm 22.2 24.9 20.3 89 1.2 E 6 9 3 5 1014.9 1014.4 14.0
30/01:30pm 21.9 24.6 20.2 90 1.1 E 6 9 3 5 1015.1 1014.6 13.6
30/01:00pm 21.5 25.3 20.1 92 0.9 CALM 0 6 0 3 1015.5 1015.0 13.2
30/12:30pm 21.3 23.3 19.9 92 0.9 SE 9 11 5 6 1015.7 1015.2 12.0
30/12:00pm 21.7 25.4 20.0 90 1.1 CALM 0 0 0 0 1016.0 1015.5 10.6
30/11:30am 21.5 25.2 20.0 91 1.0 CALM 0 0 0 0 1016.5 1016.0 10.0
30/11:00am 21.3 24.8 19.6 90 1.1 CALM 0 0 0 0 1017.0 1016.5 8.8
30/10:30am 21.1 24.7 19.7 92 0.9 CALM 0 0 0 0 1017.1 1016.6 8.0
30/10:00am 20.8 23.1 19.5 92 0.8 SSW 6 7 3 4 1017.3 1016.8 6.2
30/09:30am 20.7 24.2 19.5 93 0.8 CALM 0 0 0 0 1017.5 1017.0 4.0
30/09:00am 20.6 24.0 19.3 92 0.8 CALM 0 0 0 0 1017.6 1017.1 31.6
30/08:30am 20.3 23.6 19.1 93 0.8 CALM 0 0 0 0 1017.3 1016.8 30.6
30/08:00am 20.2 22.8 19.2 94 0.6 NNW 4 7 2 4 1017.1 1016.6 30.0
30/07:30am 20.0 22.1 19.0 94 0.6 NW 6 7 3 4 1016.8 1016.3 27.8
30/07:00am 20.1 22.3 19.1 94 0.6 W 6 7 3 4 1016.5 1016.0 24.4
30/06:30am 20.0 21.2 19.0 94 0.6 W 11 13 6 7 1016.3 1015.8 22.6
30/06:00am 20.2 21.7 18.9 92 0.8 W 9 13 5 7 1015.5 1015.0 21.2
30/05:30am 20.6 22.3 19.4 93 0.8 WSW 9 13 5 7 1015.2 1014.7 21.0
30/05:00am 20.9 24.6 19.9 94 0.6 CALM 0 0 0 0 1014.8 1014.3 20.4
30/04:30am 20.8 24.4 19.8 94 0.6 CALM 0 6 0 3 1014.1 1013.6 20.2
30/04:00am 20.7 23.1 19.7 94 0.6 N 6 7 3 4 1014.1 1013.6 19.2
30/03:30am 20.5 22.7 19.3 93 0.8 NNE 6 7 3 4 1013.7 1013.3 18.2
30/03:00am 20.5 22.7 19.3 93 0.8 NNE 6 7 3 4 1013.6 1013.2 16.8
30/02:30am 20.4 23.7 19.2 93 0.8 CALM 0 0 0 0 1013.7 1013.3 16.8
30/02:00am 20.4 23.0 19.2 93 0.8 NE 4 7 2 4 1013.9 1013.4 16.8
30/01:30am 20.3 22.3 19.1 93 0.8 NNE 7 9 4 5 1014.1 1013.6 16.0
30/01:00am 20.4 22.4 19.2 93 0.8 N 7 9 4 5 1014.4 1013.9 15.8
30/12:30am 20.4 21.7 19.2 93 0.8 NNW 11 15 6 8 1014.7 1014.2 15.6
30/12:00am 20.4 22.1 19.4 94 0.6 WSW 9 13 5 7 1014.7 1014.2 15.6
 
Date/Time
WST
Temp
°C
App
Temp
°C
Dew
Point
°C
Rel
Hum
%
Delta-T
°C
Wind Press
QNH
hPa
Press
MSL
hPa
Rain since
9am
mm
Dir  Spd
km/h
Gust
km/h
Spd
kts
Gust
kts
29/11:30pm 20.5 21.4 19.3 93 0.8 W 13 17 7 9 1014.9 1014.4 15.0
29/11:00pm 20.5 20.6 19.2 92 0.8 WNW 17 24 9 13 1015.1 1014.6 14.0
29/10:30pm 21.1 22.6 19.7 92 0.9 NNW 11 17 6 9 1014.6 1014.1 12.8
29/10:00pm 21.1 22.8 20.1 94 0.6 N 11 15 6 8 1014.7 1014.2 12.8
29/09:30pm 20.9 22.9 19.9 94 0.6 N 9 13 5 7 1014.5 1014.0 12.6
29/09:00pm 20.9 22.9 19.9 94 0.6 N 9 11 5 6 1014.6 1014.1 12.6
29/08:30pm 20.5 22.0 19.7 95 0.5 NNE 11 15 6 8 1014.8 1014.3 12.0
29/08:00pm 20.5 22.0 19.7 95 0.5 NNE 11 13 6 7 1014.9 1014.4 10.6
29/07:30pm 20.7 22.2 19.7 94 0.6 N 11 13 6 7 1014.8 1014.3 8.0
29/07:00pm 20.8 23.0 19.6 93 0.8 N 7 11 4 6 1014.3 1013.8 6.6
29/06:30pm 20.9 23.1 19.6 92 0.8 NW 7 9 4 5 1014.0 1013.5 4.8
29/06:00pm 21.2 24.7 19.5 90 1.1 CALM 0 0 0 0 1013.3 1012.9 3.2
29/05:30pm 21.4 23.1 19.3 88 1.3 WSW 9 11 5 6 1012.9 1012.5 2.2
29/05:00pm 21.4 21.4 19.0 86 1.5 SSW 17 22 9 12 1012.4 1012.0 2.2
29/04:30pm 21.4 21.2 19.3 88 1.3 SSW 19 26 10 14 1011.9 1011.4 2.2
29/04:00pm 21.7 19.9 18.7 83 1.9 SSW 26 35 14 19 1011.8 1011.3 2.2
29/03:30pm 24.9 22.1 17.4 63 4.7 SSW 28 35 15 19 1011.3 1010.8 2.2
29/03:00pm 26.2 25.0 17.6 59 5.4 S 20 33 11 18 1010.6 1010.1 2.2
29/02:30pm 26.7 26.7 19.8 66 4.5 S 19 28 10 15 1010.3 1009.8 2.2
29/02:00pm 24.4 24.2 19.7 75 3.0 S 20 28 11 15 1010.3 1009.8 2.2
29/01:30pm 23.9 23.9 20.2 80 2.4 WNW 20 35 11 19 1010.5 1010.0 1.6
29/01:00pm 26.7 29.0 19.8 66 4.5 W 7 15 4 8 1010.7 1010.2 1.4
29/12:30pm 26.0 26.2 19.4 67 4.3 WNW 17 22 9 12 1010.9 1010.4 0.4
29/12:00pm 31.1 30.4 16.3 41 9.3 W 15 20 8 11 1010.8 1010.3 0.0

Other Formats:

Comma delimited format used in spreadsheet applications
http://www.bom.gov.au/fwo/IDW60801/IDW60801.94206.axf

JavaScript Object Notation format (JSON) in row-major order
http://www.bom.gov.au/fwo/IDW60801/IDW60801.94206.json